Arlee, Montana
Current Conditions -  °F | °C
As of 7:53 AM on Monday 24 Nov 2014 (Local Time) from KMSO Reporting Station
Broken Clouds Broken Clouds  
Wind Chill: 33°   Ceiling: 6000
Heat Index: 33°   Visibility: 10mi
Dew Point: 25°   Wind: 0mph
Humidity: 72%   Direction: NA
Pressure: 30.25"   Gusts: NA
Location:  47.16°N, 114.09°W
Report Text: KMSO 241453Z 00000KT 10SM BKN060 01/M04 A3025 RMK AO2 SLP272 T00061039 51022
Loading
Personal Weather Stations






























Interactive Weather Map New forecast layout! Learn more

10-Day Weather Forecast

Advertisements
Track Severe Weather on mobile